sensor_id;sensor_type;location;lat;lon;timestamp;temperature;humidity
14049;DHT22;7099;53.922;10.728;2023-06-10T00:00:28;15.90;69.40
14049;DHT22;7099;53.922;10.728;2023-06-10T00:04:36;15.90;69.30
14049;DHT22;7099;53.922;10.728;2023-06-10T00:08:41;15.90;69.40
14049;DHT22;7099;53.922;10.728;2023-06-10T00:12:47;15.80;69.30
14049;DHT22;7099;53.922;10.728;2023-06-10T00:16:53;15.80;69.50
14049;DHT22;7099;53.922;10.728;2023-06-10T00:20:58;15.80;69.50
14049;DHT22;7099;53.922;10.728;2023-06-10T00:25:09;15.70;69.60
14049;DHT22;7099;53.922;10.728;2023-06-10T00:29:16;15.70;70.00
14049;DHT22;7099;53.922;10.728;2023-06-10T00:33:22;15.70;70.20
14049;DHT22;7099;53.922;10.728;2023-06-10T00:37:28;15.70;70.40
14049;DHT22;7099;53.922;10.728;2023-06-10T00:41:34;15.60;71.00
14049;DHT22;7099;53.922;10.728;2023-06-10T00:45:39;15.60;71.20
14049;DHT22;7099;53.922;10.728;2023-06-10T00:49:46;15.60;72.30
14049;DHT22;7099;53.922;10.728;2023-06-10T00:53:53;15.60;72.80
14049;DHT22;7099;53.922;10.728;2023-06-10T00:57:59;15.70;73.50
14049;DHT22;7099;53.922;10.728;2023-06-10T01:02:05;15.70;73.90
14049;DHT22;7099;53.922;10.728;2023-06-10T01:10:39;15.80;75.20
14049;DHT22;7099;53.922;10.728;2023-06-10T01:14:47;15.80;74.50
14049;DHT22;7099;53.922;10.728;2023-06-10T01:18:54;15.90;74.50
14049;DHT22;7099;53.922;10.728;2023-06-10T01:23:00;15.90;74.30
14049;DHT22;7099;53.922;10.728;2023-06-10T01:27:12;15.90;74.40
14049;DHT22;7099;53.922;10.728;2023-06-10T01:35:43;15.90;75.80
14049;DHT22;7099;53.922;10.728;2023-06-10T01:39:49;15.90;74.50
14049;DHT22;7099;53.922;10.728;2023-06-10T01:43:55;15.90;74.50
14049;DHT22;7099;53.922;10.728;2023-06-10T01:48:01;15.90;74.40
14049;DHT22;7099;53.922;10.728;2023-06-10T01:52:07;15.90;74.90
14049;DHT22;7099;53.922;10.728;2023-06-10T01:56:12;15.90;74.30
14049;DHT22;7099;53.922;10.728;2023-06-10T02:00:24;15.90;74.20
14049;DHT22;7099;53.922;10.728;2023-06-10T02:04:29;16.00;74.00
14049;DHT22;7099;53.922;10.728;2023-06-10T02:08:35;15.90;74.20
14049;DHT22;7099;53.922;10.728;2023-06-10T02:12:40;15.90;74.30
14049;DHT22;7099;53.922;10.728;2023-06-10T02:16:46;15.90;74.30
14049;DHT22;7099;53.922;10.728;2023-06-10T02:20:53;15.90;74.40
14049;DHT22;7099;53.922;10.728;2023-06-10T02:24:58;15.90;74.30
14049;DHT22;7099;53.922;10.728;2023-06-10T02:29:04;15.80;74.50
14049;DHT22;7099;53.922;10.728;2023-06-10T02:33:10;15.80;74.50
14049;DHT22;7099;53.922;10.728;2023-06-10T02:37:16;15.80;74.40
14049;DHT22;7099;53.922;10.728;2023-06-10T02:41:21;15.80;74.40
14049;DHT22;7099;53.922;10.728;2023-06-10T02:45:27;15.90;74.20
14049;DHT22;7099;53.922;10.728;2023-06-10T02:49:32;15.80;74.10
14049;DHT22;7099;53.922;10.728;2023-06-10T02:53:38;15.90;74.00
14049;DHT22;7099;53.922;10.728;2023-06-10T02:57:43;15.80;74.40
14049;DHT22;7099;53.922;10.728;2023-06-10T03:01:49;15.80;74.30
14049;DHT22;7099;53.922;10.728;2023-06-10T03:05:55;15.80;74.30
14049;DHT22;7099;53.922;10.728;2023-06-10T03:10:02;15.80;74.20
14049;DHT22;7099;53.922;10.728;2023-06-10T03:14:07;15.80;74.50
14049;DHT22;7099;53.922;10.728;2023-06-10T03:18:13;15.80;74.50
14049;DHT22;7099;53.922;10.728;2023-06-10T03:22:19;15.70;74.60
14049;DHT22;7099;53.922;10.728;2023-06-10T03:26:26;15.70;74.80
14049;DHT22;7099;53.922;10.728;2023-06-10T03:30:32;15.70;74.90
14049;DHT22;7099;53.922;10.728;2023-06-10T03:34:38;15.80;75.00
14049;DHT22;7099;53.922;10.728;2023-06-10T03:38:43;15.70;74.90
14049;DHT22;7099;53.922;10.728;2023-06-10T03:42:49;15.70;74.80
14049;DHT22;7099;53.922;10.728;2023-06-10T03:46:55;15.80;74.60
14049;DHT22;7099;53.922;10.728;2023-06-10T03:51:01;15.80;74.20
14049;DHT22;7099;53.922;10.728;2023-06-10T03:55:07;15.80;73.30
14049;DHT22;7099;53.922;10.728;2023-06-10T03:59:13;15.70;72.80
14049;DHT22;7099;53.922;10.728;2023-06-10T04:03:19;15.80;72.40
14049;DHT22;7099;53.922;10.728;2023-06-10T04:07:26;15.80;72.10
14049;DHT22;7099;53.922;10.728;2023-06-10T04:11:35;15.80;71.80
14049;DHT22;7099;53.922;10.728;2023-06-10T04:15:41;15.80;71.70
14049;DHT22;7099;53.922;10.728;2023-06-10T04:19:46;15.90;71.70
14049;DHT22;7099;53.922;10.728;2023-06-10T04:23:52;15.90;71.80
14049;DHT22;7099;53.922;10.728;2023-06-10T04:27:57;15.90;72.00
14049;DHT22;7099;53.922;10.728;2023-06-10T04:32:03;15.90;71.20
14049;DHT22;7099;53.922;10.728;2023-06-10T04:36:11;15.90;71.00
14049;DHT22;7099;53.922;10.728;2023-06-10T04:40:17;16.00;70.90
14049;DHT22;7099;53.922;10.728;2023-06-10T04:44:23;16.00;70.80
14049;DHT22;7099;53.922;10.728;2023-06-10T04:48:28;16.10;70.80
14049;DHT22;7099;53.922;10.728;2023-06-10T04:52:34;16.20;70.50
14049;DHT22;7099;53.922;10.728;2023-06-10T04:56:39;16.20;70.30
14049;DHT22;7099;53.922;10.728;2023-06-10T05:00:45;16.30;70.00
14049;DHT22;7099;53.922;10.728;2023-06-10T05:04:50;16.30;69.70
14049;DHT22;7099;53.922;10.728;2023-06-10T05:08:56;16.40;69.80
14049;DHT22;7099;53.922;10.728;2023-06-10T05:13:02;16.50;69.70
14049;DHT22;7099;53.922;10.728;2023-06-10T05:17:08;16.70;70.00
14049;DHT22;7099;53.922;10.728;2023-06-10T05:21:13;16.70;69.80
14049;DHT22;7099;53.922;10.728;2023-06-10T05:25:21;16.90;70.10
14049;DHT22;7099;53.922;10.728;2023-06-10T05:35:11;17.10;69.50
14049;DHT22;7099;53.922;10.728;2023-06-10T05:39:17;17.10;68.50
14049;DHT22;7099;53.922;10.728;2023-06-10T05:43:23;17.10;68.00
14049;DHT22;7099;53.922;10.728;2023-06-10T05:47:28;17.20;68.10
14049;DHT22;7099;53.922;10.728;2023-06-10T05:51:34;17.30;67.80
14049;DHT22;7099;53.922;10.728;2023-06-10T05:55:43;17.40;67.80
14049;DHT22;7099;53.922;10.728;2023-06-10T05:59:49;17.50;68.20
14049;DHT22;7099;53.922;10.728;2023-06-10T06:03:54;17.70;68.40
14049;DHT22;7099;53.922;10.728;2023-06-10T06:08:01;17.80;67.80
14049;DHT22;7099;53.922;10.728;2023-06-10T06:12:07;17.90;67.20
14049;DHT22;7099;53.922;10.728;2023-06-10T06:16:13;17.90;67.00
14049;DHT22;7099;53.922;10.728;2023-06-10T06:20:20;18.00;67.20
14049;DHT22;7099;53.922;10.728;2023-06-10T06:24:25;18.00;66.80
14049;DHT22;7099;53.922;10.728;2023-06-10T06:28:31;18.20;67.30
14049;DHT22;7099;53.922;10.728;2023-06-10T06:32:37;18.40;67.50
14049;DHT22;7099;53.922;10.728;2023-06-10T06:36:42;18.50;67.10
14049;DHT22;7099;53.922;10.728;2023-06-10T06:40:48;18.50;66.20
14049;DHT22;7099;53.922;10.728;2023-06-10T06:44:54;18.70;65.60
14049;DHT22;7099;53.922;10.728;2023-06-10T06:48:59;18.80;64.80
14049;DHT22;7099;53.922;10.728;2023-06-10T06:53:05;18.90;64.20
14049;DHT22;7099;53.922;10.728;2023-06-10T06:57:11;18.90;64.10
14049;DHT22;7099;53.922;10.728;2023-06-10T07:01:16;19.00;64.40
14049;DHT22;7099;53.922;10.728;2023-06-10T07:05:23;19.10;64.80
14049;DHT22;7099;53.922;10.728;2023-06-10T07:09:30;19.20;64.50
14049;DHT22;7099;53.922;10.728;2023-06-10T07:13:36;19.40;63.90
14049;DHT22;7099;53.922;10.728;2023-06-10T07:17:41;19.50;63.50
14049;DHT22;7099;53.922;10.728;2023-06-10T07:21:47;19.60;63.60
14049;DHT22;7099;53.922;10.728;2023-06-10T07:25:52;19.80;63.40
14049;DHT22;7099;53.922;10.728;2023-06-10T07:29:58;20.00;62.90
14049;DHT22;7099;53.922;10.728;2023-06-10T07:34:06;20.10;62.00
14049;DHT22;7099;53.922;10.728;2023-06-10T07:38:11;20.10;62.20
14049;DHT22;7099;53.922;10.728;2023-06-10T07:42:16;20.10;62.20
14049;DHT22;7099;53.922;10.728;2023-06-10T07:46:23;20.40;62.50
14049;DHT22;7099;53.922;10.728;2023-06-10T07:50:29;20.40;61.70
14049;DHT22;7099;53.922;10.728;2023-06-10T07:54:34;20.50;61.40
14049;DHT22;7099;53.922;10.728;2023-06-10T07:58:40;20.60;61.20
14049;DHT22;7099;53.922;10.728;2023-06-10T08:02:46;20.70;61.60
14049;DHT22;7099;53.922;10.728;2023-06-10T08:06:52;20.70;62.50
14049;DHT22;7099;53.922;10.728;2023-06-10T08:10:58;20.90;62.50
14049;DHT22;7099;53.922;10.728;2023-06-10T08:15:03;21.10;62.60
14049;DHT22;7099;53.922;10.728;2023-06-10T08:19:09;21.20;62.40
14049;DHT22;7099;53.922;10.728;2023-06-10T08:23:15;21.20;61.90
14049;DHT22;7099;53.922;10.728;2023-06-10T08:27:20;21.30;61.80
14049;DHT22;7099;53.922;10.728;2023-06-10T08:31:26;21.30;62.20
14049;DHT22;7099;53.922;10.728;2023-06-10T08:35:31;21.40;62.30
14049;DHT22;7099;53.922;10.728;2023-06-10T08:39:37;21.70;62.20
14049;DHT22;7099;53.922;10.728;2023-06-10T08:43:46;21.70;61.20
14049;DHT22;7099;53.922;10.728;2023-06-10T08:47:57;21.70;61.90
14049;DHT22;7099;53.922;10.728;2023-06-10T08:52:05;21.90;61.40
14049;DHT22;7099;53.922;10.728;2023-06-10T08:56:12;22.00;61.00
14049;DHT22;7099;53.922;10.728;2023-06-10T09:00:18;22.10;60.30
14049;DHT22;7099;53.922;10.728;2023-06-10T09:04:24;22.10;59.90
14049;DHT22;7099;53.922;10.728;2023-06-10T09:08:30;22.20;60.90
14049;DHT22;7099;53.922;10.728;2023-06-10T09:12:36;22.30;59.60
14049;DHT22;7099;53.922;10.728;2023-06-10T09:16:43;22.30;60.00
14049;DHT22;7099;53.922;10.728;2023-06-10T09:20:50;22.30;60.00
14049;DHT22;7099;53.922;10.728;2023-06-10T09:25:07;22.30;59.40
14049;DHT22;7099;53.922;10.728;2023-06-10T09:29:14;22.40;59.20
14049;DHT22;7099;53.922;10.728;2023-06-10T09:33:24;22.50;59.30
14049;DHT22;7099;53.922;10.728;2023-06-10T09:37:32;22.60;58.40
14049;DHT22;7099;53.922;10.728;2023-06-10T09:41:40;22.80;58.50
14049;DHT22;7099;53.922;10.728;2023-06-10T09:45:56;22.80;58.30
14049;DHT22;7099;53.922;10.728;2023-06-10T09:50:02;22.70;58.20
14049;DHT22;7099;53.922;10.728;2023-06-10T09:54:08;22.80;58.40
14049;DHT22;7099;53.922;10.728;2023-06-10T09:58:14;23.00;58.20
14049;DHT22;7099;53.922;10.728;2023-06-10T10:02:20;23.10;58.50
14049;DHT22;7099;53.922;10.728;2023-06-10T10:06:26;23.10;58.50
14049;DHT22;7099;53.922;10.728;2023-06-10T10:10:33;23.30;58.10
14049;DHT22;7099;53.922;10.728;2023-06-10T10:14:46;23.30;57.70
14049;DHT22;7099;53.922;10.728;2023-06-10T10:18:56;23.30;57.10
14049;DHT22;7099;53.922;10.728;2023-06-10T10:23:07;23.40;56.80
14049;DHT22;7099;53.922;10.728;2023-06-10T10:27:36;23.50;57.00
14049;DHT22;7099;53.922;10.728;2023-06-10T10:31:52;23.50;56.40
14049;DHT22;7099;53.922;10.728;2023-06-10T10:36:00;23.60;57.00
14049;DHT22;7099;53.922;10.728;2023-06-10T10:40:07;23.70;56.60
14049;DHT22;7099;53.922;10.728;2023-06-10T10:44:13;23.90;56.20
14049;DHT22;7099;53.922;10.728;2023-06-10T10:48:18;23.90;55.70
14049;DHT22;7099;53.922;10.728;2023-06-10T10:52:25;23.80;55.80
14049;DHT22;7099;53.922;10.728;2023-06-10T10:56:33;23.90;56.00
14049;DHT22;7099;53.922;10.728;2023-06-10T11:00:44;24.00;55.80
14049;DHT22;7099;53.922;10.728;2023-06-10T11:04:50;24.00;55.60
14049;DHT22;7099;53.922;10.728;2023-06-10T11:08:56;24.00;56.20
14049;DHT22;7099;53.922;10.728;2023-06-10T11:13:12;24.20;55.80
14049;DHT22;7099;53.922;10.728;2023-06-10T11:17:19;24.20;55.30
14049;DHT22;7099;53.922;10.728;2023-06-10T11:21:25;24.30;55.10
14049;DHT22;7099;53.922;10.728;2023-06-10T11:25:39;24.40;54.90
14049;DHT22;7099;53.922;10.728;2023-06-10T11:34:23;24.30;54.60
14049;DHT22;7099;53.922;10.728;2023-06-10T11:38:32;24.30;54.80
14049;DHT22;7099;53.922;10.728;2023-06-10T11:42:40;24.30;54.70
14049;DHT22;7099;53.922;10.728;2023-06-10T11:46:48;24.30;54.70
14049;DHT22;7099;53.922;10.728;2023-06-10T11:50:54;24.30;55.10
14049;DHT22;7099;53.922;10.728;2023-06-10T11:55:00;24.30;54.80
14049;DHT22;7099;53.922;10.728;2023-06-10T11:59:06;24.20;54.80
14049;DHT22;7099;53.922;10.728;2023-06-10T12:03:13;24.10;55.10
14049;DHT22;7099;53.922;10.728;2023-06-10T12:07:19;24.00;55.30
14049;DHT22;7099;53.922;10.728;2023-06-10T12:11:26;24.00;55.50
14049;DHT22;7099;53.922;10.728;2023-06-10T12:15:31;24.00;55.60
14049;DHT22;7099;53.922;10.728;2023-06-10T12:19:40;24.00;55.70
14049;DHT22;7099;53.922;10.728;2023-06-10T12:24:18;24.20;55.40
14049;DHT22;7099;53.922;10.728;2023-06-10T12:28:25;24.40;55.10
14049;DHT22;7099;53.922;10.728;2023-06-10T12:32:50;24.30;55.20
14049;DHT22;7099;53.922;10.728;2023-06-10T12:36:57;24.30;55.00
14049;DHT22;7099;53.922;10.728;2023-06-10T12:41:03;24.20;56.10
14049;DHT22;7099;53.922;10.728;2023-06-10T12:45:09;24.20;55.70
14049;DHT22;7099;53.922;10.728;2023-06-10T12:49:19;24.20;55.80
14049;DHT22;7099;53.922;10.728;2023-06-10T12:53:26;24.20;55.70
14049;DHT22;7099;53.922;10.728;2023-06-10T12:57:31;24.30;55.30
14049;DHT22;7099;53.922;10.728;2023-06-10T13:01:38;24.30;55.90
14049;DHT22;7099;53.922;10.728;2023-06-10T13:05:44;24.30;55.70
14049;DHT22;7099;53.922;10.728;2023-06-10T13:09:49;24.30;55.80
14049;DHT22;7099;53.922;10.728;2023-06-10T13:13:55;24.50;55.70
14049;DHT22;7099;53.922;10.728;2023-06-10T13:18:00;24.60;54.70
14049;DHT22;7099;53.922;10.728;2023-06-10T13:22:06;24.70;54.40
14049;DHT22;7099;53.922;10.728;2023-06-10T13:26:12;24.70;54.20
14049;DHT22;7099;53.922;10.728;2023-06-10T13:30:17;24.80;54.60
14049;DHT22;7099;53.922;10.728;2023-06-10T13:34:23;25.00;54.20
14049;DHT22;7099;53.922;10.728;2023-06-10T13:38:28;25.00;53.80
14049;DHT22;7099;53.922;10.728;2023-06-10T13:42:34;25.20;53.50
14049;DHT22;7099;53.922;10.728;2023-06-10T13:46:41;25.30;52.80
14049;DHT22;7099;53.922;10.728;2023-06-10T13:50:46;25.20;52.80
14049;DHT22;7099;53.922;10.728;2023-06-10T13:54:52;25.20;53.10
14049;DHT22;7099;53.922;10.728;2023-06-10T13:58:57;25.20;53.10
14049;DHT22;7099;53.922;10.728;2023-06-10T14:03:06;25.20;53.20
14049;DHT22;7099;53.922;10.728;2023-06-10T14:07:12;25.30;53.00
14049;DHT22;7099;53.922;10.728;2023-06-10T14:11:17;25.40;52.40
14049;DHT22;7099;53.922;10.728;2023-06-10T14:15:23;25.30;52.10
14049;DHT22;7099;53.922;10.728;2023-06-10T14:19:29;25.20;52.40
14049;DHT22;7099;53.922;10.728;2023-06-10T14:23:35;25.20;52.70
14049;DHT22;7099;53.922;10.728;2023-06-10T14:27:40;25.30;52.00
14049;DHT22;7099;53.922;10.728;2023-06-10T14:31:46;25.20;52.00
14049;DHT22;7099;53.922;10.728;2023-06-10T14:35:51;25.20;51.70
14049;DHT22;7099;53.922;10.728;2023-06-10T14:39:57;25.10;51.70
14049;DHT22;7099;53.922;10.728;2023-06-10T14:44:02;25.00;51.90
14049;DHT22;7099;53.922;10.728;2023-06-10T14:48:08;25.10;51.70
14049;DHT22;7099;53.922;10.728;2023-06-10T14:52:14;25.20;51.60
14049;DHT22;7099;53.922;10.728;2023-06-10T14:56:21;25.00;51.80
14049;DHT22;7099;53.922;10.728;2023-06-10T15:00:26;25.20;51.20
14049;DHT22;7099;53.922;10.728;2023-06-10T15:04:32;25.30;51.10
14049;DHT22;7099;53.922;10.728;2023-06-10T15:08:38;25.20;50.90
14049;DHT22;7099;53.922;10.728;2023-06-10T15:12:43;25.30;51.00
14049;DHT22;7099;53.922;10.728;2023-06-10T15:16:49;25.50;50.40
14049;DHT22;7099;53.922;10.728;2023-06-10T15:20:54;25.50;50.20
14049;DHT22;7099;53.922;10.728;2023-06-10T15:25:00;25.70;50.00
14049;DHT22;7099;53.922;10.728;2023-06-10T15:29:09;25.60;50.10
14049;DHT22;7099;53.922;10.728;2023-06-10T15:33:14;25.70;49.90
14049;DHT22;7099;53.922;10.728;2023-06-10T15:37:20;25.90;49.70
14049;DHT22;7099;53.922;10.728;2023-06-10T15:41:26;26.10;49.30
14049;DHT22;7099;53.922;10.728;2023-06-10T15:45:31;26.10;48.90
14049;DHT22;7099;53.922;10.728;2023-06-10T15:49:40;26.10;49.30
14049;DHT22;7099;53.922;10.728;2023-06-10T15:53:45;25.90;49.10
14049;DHT22;7099;53.922;10.728;2023-06-10T15:57:52;26.00;49.10
14049;DHT22;7099;53.922;10.728;2023-06-10T16:01:57;26.10;48.80
14049;DHT22;7099;53.922;10.728;2023-06-10T16:06:03;26.30;48.40
14049;DHT22;7099;53.922;10.728;2023-06-10T16:10:09;26.40;48.10
14049;DHT22;7099;53.922;10.728;2023-06-10T16:14:14;26.30;48.30
14049;DHT22;7099;53.922;10.728;2023-06-10T16:18:20;26.20;47.80
14049;DHT22;7099;53.922;10.728;2023-06-10T16:22:25;26.30;48.00
14049;DHT22;7099;53.922;10.728;2023-06-10T16:26:31;26.30;47.90
14049;DHT22;7099;53.922;10.728;2023-06-10T16:30:36;26.40;47.70
14049;DHT22;7099;53.922;10.728;2023-06-10T16:34:42;26.40;47.80
14049;DHT22;7099;53.922;10.728;2023-06-10T16:38:48;26.20;47.40
14049;DHT22;7099;53.922;10.728;2023-06-10T16:42:53;26.20;47.40
14049;DHT22;7099;53.922;10.728;2023-06-10T16:46:59;26.20;47.10
14049;DHT22;7099;53.922;10.728;2023-06-10T16:51:04;26.20;47.00
14049;DHT22;7099;53.922;10.728;2023-06-10T16:55:10;26.10;46.90
14049;DHT22;7099;53.922;10.728;2023-06-10T16:59:16;26.00;47.20
14049;DHT22;7099;53.922;10.728;2023-06-10T17:03:21;25.90;46.90
14049;DHT22;7099;53.922;10.728;2023-06-10T17:07:27;25.90;47.00
14049;DHT22;7099;53.922;10.728;2023-06-10T17:11:34;26.00;46.80
14049;DHT22;7099;53.922;10.728;2023-06-10T17:15:40;26.00;46.60
14049;DHT22;7099;53.922;10.728;2023-06-10T17:19:46;25.80;46.80
14049;DHT22;7099;53.922;10.728;2023-06-10T17:23:55;25.80;46.70
14049;DHT22;7099;53.922;10.728;2023-06-10T17:28:00;25.70;46.80
14049;DHT22;7099;53.922;10.728;2023-06-10T17:32:06;25.60;46.50
14049;DHT22;7099;53.922;10.728;2023-06-10T17:36:12;25.60;46.60
14049;DHT22;7099;53.922;10.728;2023-06-10T17:40:18;25.40;46.40
14049;DHT22;7099;53.922;10.728;2023-06-10T17:44:23;25.40;46.50
14049;DHT22;7099;53.922;10.728;2023-06-10T17:48:29;25.50;46.20
14049;DHT22;7099;53.922;10.728;2023-06-10T17:52:35;25.30;46.50
14049;DHT22;7099;53.922;10.728;2023-06-10T17:56:40;25.20;46.80
14049;DHT22;7099;53.922;10.728;2023-06-10T18:00:46;25.20;46.70
14049;DHT22;7099;53.922;10.728;2023-06-10T18:04:51;25.10;46.70
14049;DHT22;7099;53.922;10.728;2023-06-10T18:08:57;25.10;46.60
14049;DHT22;7099;53.922;10.728;2023-06-10T18:13:02;25.00;47.20
14049;DHT22;7099;53.922;10.728;2023-06-10T18:17:08;24.80;46.70
14049;DHT22;7099;53.922;10.728;2023-06-10T18:21:14;24.70;47.20
14049;DHT22;7099;53.922;10.728;2023-06-10T18:25:20;24.40;47.40
14049;DHT22;7099;53.922;10.728;2023-06-10T18:29:25;24.30;47.80
14049;DHT22;7099;53.922;10.728;2023-06-10T18:33:32;24.10;48.00
14049;DHT22;7099;53.922;10.728;2023-06-10T18:37:38;23.90;48.00
14049;DHT22;7099;53.922;10.728;2023-06-10T18:41:43;23.80;48.20
14049;DHT22;7099;53.922;10.728;2023-06-10T18:45:49;23.70;48.70
14049;DHT22;7099;53.922;10.728;2023-06-10T18:49:55;23.40;48.90
14049;DHT22;7099;53.922;10.728;2023-06-10T18:54:00;23.30;49.10
14049;DHT22;7099;53.922;10.728;2023-06-10T18:58:08;23.20;49.40
14049;DHT22;7099;53.922;10.728;2023-06-10T19:02:13;23.10;49.60
14049;DHT22;7099;53.922;10.728;2023-06-10T19:06:20;22.80;50.00
14049;DHT22;7099;53.922;10.728;2023-06-10T19:10:25;22.70;50.20
14049;DHT22;7099;53.922;10.728;2023-06-10T19:14:31;22.50;50.50
14049;DHT22;7099;53.922;10.728;2023-06-10T19:18:36;22.40;50.70
14049;DHT22;7099;53.922;10.728;2023-06-10T19:22:43;22.30;50.80
14049;DHT22;7099;53.922;10.728;2023-06-10T19:26:48;22.20;51.00
14049;DHT22;7099;53.922;10.728;2023-06-10T19:30:54;22.10;50.90
14049;DHT22;7099;53.922;10.728;2023-06-10T19:35:00;21.90;50.40
14049;DHT22;7099;53.922;10.728;2023-06-10T19:39:06;21.70;50.20
14049;DHT22;7099;53.922;10.728;2023-06-10T19:43:11;21.60;50.50
14049;DHT22;7099;53.922;10.728;2023-06-10T19:47:17;21.50;50.20
14049;DHT22;7099;53.922;10.728;2023-06-10T19:51:23;21.30;49.70
14049;DHT22;7099;53.922;10.728;2023-06-10T19:55:29;21.10;49.20
14049;DHT22;7099;53.922;10.728;2023-06-10T19:59:35;20.90;48.70
14049;DHT22;7099;53.922;10.728;2023-06-10T20:03:41;20.80;48.30
14049;DHT22;7099;53.922;10.728;2023-06-10T20:07:46;20.60;48.00
14049;DHT22;7099;53.922;10.728;2023-06-10T20:11:52;20.50;47.70
14049;DHT22;7099;53.922;10.728;2023-06-10T20:15:57;20.40;47.80
14049;DHT22;7099;53.922;10.728;2023-06-10T20:20:03;20.30;47.80
14049;DHT22;7099;53.922;10.728;2023-06-10T20:24:09;20.10;47.40
14049;DHT22;7099;53.922;10.728;2023-06-10T20:28:15;19.90;47.10
14049;DHT22;7099;53.922;10.728;2023-06-10T20:32:20;19.80;47.00
14049;DHT22;7099;53.922;10.728;2023-06-10T20:36:26;19.80;46.70
14049;DHT22;7099;53.922;10.728;2023-06-10T20:40:35;19.60;46.40
14049;DHT22;7099;53.922;10.728;2023-06-10T20:44:41;19.40;46.30
14049;DHT22;7099;53.922;10.728;2023-06-10T20:48:46;19.30;46.10
14049;DHT22;7099;53.922;10.728;2023-06-10T20:52:52;19.20;46.20
14049;DHT22;7099;53.922;10.728;2023-06-10T20:56:57;19.10;46.70
14049;DHT22;7099;53.922;10.728;2023-06-10T21:01:03;19.00;47.00
14049;DHT22;7099;53.922;10.728;2023-06-10T21:05:09;18.90;47.10
14049;DHT22;7099;53.922;10.728;2023-06-10T21:09:15;18.90;47.20
14049;DHT22;7099;53.922;10.728;2023-06-10T21:13:20;18.80;47.40
14049;DHT22;7099;53.922;10.728;2023-06-10T21:17:26;18.70;47.60
14049;DHT22;7099;53.922;10.728;2023-06-10T21:21:32;18.70;47.80
14049;DHT22;7099;53.922;10.728;2023-06-10T21:25:38;18.60;48.20
14049;DHT22;7099;53.922;10.728;2023-06-10T21:29:44;18.60;48.70
14049;DHT22;7099;53.922;10.728;2023-06-10T21:33:51;18.50;49.10
14049;DHT22;7099;53.922;10.728;2023-06-10T21:37:57;18.40;49.50
14049;DHT22;7099;53.922;10.728;2023-06-10T21:42:02;18.30;49.80
14049;DHT22;7099;53.922;10.728;2023-06-10T21:46:08;18.20;50.00
14049;DHT22;7099;53.922;10.728;2023-06-10T21:50:14;18.20;50.40
14049;DHT22;7099;53.922;10.728;2023-06-10T21:54:19;18.00;50.60
14049;DHT22;7099;53.922;10.728;2023-06-10T21:58:25;17.90;51.00
14049;DHT22;7099;53.922;10.728;2023-06-10T22:02:30;17.70;51.40
14049;DHT22;7099;53.922;10.728;2023-06-10T22:06:36;18.00;51.40
14049;DHT22;7099;53.922;10.728;2023-06-10T22:10:42;17.90;51.70
14049;DHT22;7099;53.922;10.728;2023-06-10T22:14:47;17.70;52.20
14049;DHT22;7099;53.922;10.728;2023-06-10T22:18:53;17.80;52.50
14049;DHT22;7099;53.922;10.728;2023-06-10T22:22:58;17.70;52.80
14049;DHT22;7099;53.922;10.728;2023-06-10T22:27:04;17.50;53.10
14049;DHT22;7099;53.922;10.728;2023-06-10T22:31:12;17.40;53.20
14049;DHT22;7099;53.922;10.728;2023-06-10T22:35:18;17.30;53.40
14049;DHT22;7099;53.922;10.728;2023-06-10T22:39:23;17.20;53.60
14049;DHT22;7099;53.922;10.728;2023-06-10T22:43:29;17.20;53.90
14049;DHT22;7099;53.922;10.728;2023-06-10T22:47:34;17.10;54.10
14049;DHT22;7099;53.922;10.728;2023-06-10T22:51:40;17.00;54.30
14049;DHT22;7099;53.922;10.728;2023-06-10T22:55:46;17.00;54.50
14049;DHT22;7099;53.922;10.728;2023-06-10T22:59:51;16.90;54.80
14049;DHT22;7099;53.922;10.728;2023-06-10T23:03:57;16.80;55.10
14049;DHT22;7099;53.922;10.728;2023-06-10T23:08:03;16.80;55.40
14049;DHT22;7099;53.922;10.728;2023-06-10T23:12:09;16.70;55.60
14049;DHT22;7099;53.922;10.728;2023-06-10T23:16:15;16.60;55.80
14049;DHT22;7099;53.922;10.728;2023-06-10T23:20:21;16.50;56.30
14049;DHT22;7099;53.922;10.728;2023-06-10T23:24:28;16.40;56.80
14049;DHT22;7099;53.922;10.728;2023-06-10T23:28:37;16.30;56.80
14049;DHT22;7099;53.922;10.728;2023-06-10T23:32:42;16.30;57.00
14049;DHT22;7099;53.922;10.728;2023-06-10T23:36:49;16.20;57.00
14049;DHT22;7099;53.922;10.728;2023-06-10T23:40:57;16.20;57.30
14049;DHT22;7099;53.922;10.728;2023-06-10T23:45:03;16.20;57.50
14049;DHT22;7099;53.922;10.728;2023-06-10T23:49:09;16.10;57.80
14049;DHT22;7099;53.922;10.728;2023-06-10T23:53:14;16.10;57.90
14049;DHT22;7099;53.922;10.728;2023-06-10T23:57:20;16.10;58.20
